createdAt,value
2017-05-09T00:00:01.885Z,76.00
2017-05-09T00:02:30.935Z,75.20
2017-05-09T00:04:59.269Z,75.20
2017-05-09T00:07:28.306Z,75.40
2017-05-09T00:09:56.614Z,75.40
2017-05-09T00:12:24.926Z,75.00
2017-05-09T00:14:53.971Z,75.70
2017-05-09T00:17:22.263Z,75.50
2017-05-09T00:19:50.598Z,76.20
2017-05-09T00:22:18.903Z,76.10
2017-05-09T00:24:47.215Z,76.00
2017-05-09T00:27:15.548Z,76.90
2017-05-09T00:29:43.852Z,77.10
2017-05-09T00:32:12.163Z,77.40
2017-05-09T00:34:40.490Z,77.60
2017-05-09T00:37:08.792Z,77.60
2017-05-09T00:39:37.089Z,78.70
2017-05-09T00:42:06.173Z,78.80
2017-05-09T00:44:34.478Z,79.30
2017-05-09T00:47:03.522Z,79.50
2017-05-09T00:49:31.867Z,79.70
2017-05-09T00:52:00.169Z,78.10
2017-05-09T00:54:28.482Z,78.70
2017-05-09T00:56:57.565Z,77.80
2017-05-09T00:59:25.854Z,75.40
2017-05-09T01:01:54.156Z,75.40
2017-05-09T01:04:23.220Z,76.90
2017-05-09T01:06:51.514Z,76.70
2017-05-09T01:09:19.812Z,76.10
2017-05-09T01:11:48.138Z,74.10
2017-05-09T01:14:16.433Z,74.80
2017-05-09T01:16:44.729Z,75.10
2017-05-09T01:19:13.097Z,75.00
2017-05-09T01:21:44.731Z,75.00
2017-05-09T01:24:13.074Z,76.30
2017-05-09T01:26:41.371Z,75.90
2017-05-09T01:29:09.697Z,77.20
2017-05-09T01:31:38.025Z,77.10
2017-05-09T01:34:06.314Z,75.80
2017-05-09T01:36:34.636Z,74.90
2017-05-09T01:39:02.937Z,74.90
2017-05-09T01:41:32.006Z,74.90
2017-05-09T01:44:00.334Z,74.90
2017-05-09T01:46:28.645Z,73.80
2017-05-09T01:48:56.975Z,73.20
2017-05-09T01:51:25.295Z,73.10
2017-05-09T01:53:53.596Z,73.70
2017-05-09T01:56:21.932Z,73.30
2017-05-09T01:58:50.235Z,72.60
2017-05-09T02:01:18.578Z,73.00
2017-05-09T02:03:46.879Z,73.30
2017-05-09T02:06:15.186Z,73.20
2017-05-09T02:08:43.510Z,73.60
2017-05-09T02:11:11.818Z,74.50
2017-05-09T02:13:40.146Z,74.50
2017-05-09T02:16:09.194Z,73.40
2017-05-09T02:18:37.486Z,74.40
2017-05-09T02:21:05.803Z,74.20
2017-05-09T02:23:34.842Z,74.50
2017-05-09T02:26:03.181Z,74.50
2017-05-09T02:28:32.217Z,74.50
2017-05-09T02:31:00.519Z,75.20
2017-05-09T02:33:28.854Z,76.20
2017-05-09T02:35:57.154Z,76.80
2017-05-09T02:38:25.765Z,77.70
2017-05-09T02:40:54.198Z,78.30
2017-05-09T02:43:22.497Z,78.60
2017-05-09T02:45:50.842Z,78.90
2017-05-09T02:48:19.143Z,79.40
2017-05-09T02:50:47.452Z,79.70
2017-05-09T02:53:15.799Z,79.90
2017-05-09T02:55:44.095Z,80.30
2017-05-09T02:58:12.399Z,79.20
2017-05-09T03:00:40.726Z,79.30
2017-05-09T03:03:09.019Z,79.20
2017-05-09T03:05:37.318Z,79.10
2017-05-09T03:08:05.653Z,79.20
2017-05-09T03:10:33.953Z,79.10
2017-05-09T03:13:02.249Z,79.40
2017-05-09T03:15:30.580Z,80.40
2017-05-09T03:17:59.625Z,79.10
2017-05-09T03:20:27.933Z,79.10
2017-05-09T03:22:56.259Z,79.00
2017-05-09T03:25:24.555Z,79.70
2017-05-09T03:27:52.852Z,79.30
2017-05-09T03:30:21.196Z,78.90
2017-05-09T03:32:49.491Z,79.20
2017-05-09T03:35:17.785Z,79.20
2017-05-09T03:37:46.130Z,79.60
2017-05-09T03:40:14.427Z,79.20
2017-05-09T03:42:42.719Z,78.80
2017-05-09T03:45:11.049Z,79.00
2017-05-09T03:47:39.349Z,78.50
2017-05-09T03:50:07.651Z,78.40
2017-05-09T03:52:35.990Z,78.60
2017-05-09T03:55:04.297Z,78.10
2017-05-09T03:57:32.602Z,78.60
2017-05-09T04:00:00.943Z,79.10
2017-05-09T04:02:29.244Z,79.10
2017-05-09T04:04:57.550Z,78.40
2017-05-09T04:07:26.623Z,78.40
2017-05-09T04:09:54.918Z,78.20
2017-05-09T04:12:23.232Z,77.60
2017-05-09T04:14:51.567Z,77.60
2017-05-09T04:17:19.873Z,77.10
2017-05-09T04:19:48.178Z,77.00
2017-05-09T04:22:16.508Z,76.90
2017-05-09T04:24:44.817Z,76.90
2017-05-09T04:27:13.112Z,77.40
2017-05-09T04:29:41.431Z,75.90
2017-05-09T04:32:09.735Z,76.60
2017-05-09T04:34:38.037Z,76.30
2017-05-09T04:37:06.377Z,76.00
2017-05-09T04:39:34.675Z,76.30
2017-05-09T04:42:03.713Z,75.70
2017-05-09T04:44:32.052Z,76.20
2017-05-09T04:47:01.099Z,74.70
2017-05-09T04:49:29.396Z,75.70
2017-05-09T04:51:57.740Z,75.60
2017-05-09T04:54:26.038Z,75.60
2017-05-09T04:56:54.335Z,75.10
2017-05-09T04:59:22.670Z,74.50
2017-05-09T05:01:50.969Z,74.80
2017-05-09T05:04:19.268Z,74.60
2017-05-09T05:06:47.613Z,74.60
2017-05-09T05:09:15.907Z,74.60
2017-05-09T05:11:44.219Z,74.60
2017-05-09T05:14:13.295Z,74.70
2017-05-09T05:16:41.612Z,73.80
2017-05-09T05:19:09.923Z,74.00
2017-05-09T05:21:38.266Z,72.10
2017-05-09T05:24:07.305Z,71.90
2017-05-09T05:26:35.606Z,72.40
2017-05-09T05:29:03.939Z,71.70
2017-05-09T05:31:32.238Z,70.90
2017-05-09T05:34:00.554Z,71.10
2017-05-09T05:36:28.898Z,70.50
2017-05-09T05:38:57.206Z,71.30
2017-05-09T05:41:25.562Z,69.40
2017-05-09T05:43:53.906Z,69.20
2017-05-09T05:46:22.197Z,68.10
2017-05-09T05:48:50.500Z,67.10
2017-05-09T05:51:18.832Z,66.60
2017-05-09T05:53:47.133Z,65.30
2017-05-09T05:56:15.434Z,63.80
2017-05-09T05:58:43.775Z,61.90
2017-05-09T06:01:12.071Z,61.50
2017-05-09T06:03:40.374Z,57.10
2017-05-09T06:06:08.716Z,55.10
2017-05-09T06:08:37.037Z,50.80
2017-05-09T06:11:05.350Z,50.00
2017-05-09T06:13:34.425Z,51.80
2017-05-09T06:16:02.729Z,52.30
2017-05-09T06:18:31.769Z,53.50
2017-05-09T06:21:00.121Z,55.70
2017-05-09T06:23:28.420Z,57.00
2017-05-09T06:25:56.714Z,57.00
2017-05-09T06:28:25.053Z,55.30
2017-05-09T06:30:53.358Z,53.70
2017-05-09T06:33:21.672Z,53.70
2017-05-09T06:35:50.012Z,53.40
2017-05-09T06:38:18.342Z,52.70
2017-05-09T06:40:46.643Z,53.30
2017-05-09T06:43:14.988Z,53.30
2017-05-09T06:45:43.301Z,52.90
2017-05-09T06:48:11.618Z,52.80
2017-05-09T06:50:39.974Z,52.80
2017-05-09T06:53:08.277Z,51.50
2017-05-09T06:55:36.586Z,50.00
2017-05-09T06:58:05.699Z,50.10
2017-05-09T07:00:34.739Z,49.20
2017-05-09T07:03:03.085Z,47.90
2017-05-09T07:05:32.163Z,48.60
2017-05-09T07:08:01.211Z,48.20
2017-05-09T07:10:29.513Z,45.90
2017-05-09T07:12:57.830Z,45.80
2017-05-09T07:15:26.899Z,46.00
2017-05-09T07:17:55.197Z,46.30
2017-05-09T07:20:24.276Z,46.40
2017-05-09T07:22:52.600Z,46.50
2017-05-09T07:25:20.908Z,42.60
2017-05-09T07:27:49.262Z,41.80
2017-05-09T07:30:17.580Z,43.20
2017-05-09T07:32:47.799Z,43.90
2017-05-09T07:35:16.133Z,45.60
2017-05-09T07:37:44.429Z,44.80
2017-05-09T07:40:12.738Z,45.80
2017-05-09T07:42:41.090Z,44.70
2017-05-09T07:45:09.398Z,45.30
2017-05-09T07:47:37.715Z,44.40
2017-05-09T07:50:06.079Z,45.00
2017-05-09T07:52:34.389Z,44.00
2017-05-09T07:55:02.701Z,44.00
2017-05-09T07:57:31.047Z,43.10
2017-05-09T07:59:59.373Z,43.40
2017-05-09T08:02:27.812Z,43.50
2017-05-09T08:04:56.265Z,41.60
2017-05-09T08:07:24.871Z,41.50
2017-05-09T08:09:53.218Z,41.90
2017-05-09T08:12:21.579Z,42.70
2017-05-09T08:14:49.906Z,44.20
2017-05-09T08:17:19.145Z,43.80
2017-05-09T08:19:47.493Z,42.40
2017-05-09T08:22:15.803Z,43.70
2017-05-09T08:24:44.110Z,41.70
2017-05-09T08:27:12.446Z,42.00
2017-05-09T08:29:40.787Z,41.80
2017-05-09T08:32:09.825Z,42.70
2017-05-09T08:34:38.163Z,40.20
2017-05-09T08:37:07.211Z,39.60
2017-05-09T08:39:35.517Z,40.60
2017-05-09T08:42:03.850Z,38.30
2017-05-09T08:44:32.168Z,42.00
2017-05-09T08:47:00.466Z,41.00
2017-05-09T08:49:29.544Z,40.00
2017-05-09T08:51:57.857Z,39.70
2017-05-09T08:54:26.168Z,37.60
2017-05-09T08:56:54.507Z,34.00
2017-05-09T08:59:23.550Z,33.80
2017-05-09T09:01:51.846Z,33.50
2017-05-09T09:04:20.197Z,33.30
2017-05-09T09:06:48.506Z,33.10
2017-05-09T09:09:16.819Z,35.70
2017-05-09T09:11:45.894Z,33.60
2017-05-09T09:14:14.189Z,32.20
2017-05-09T09:16:43.262Z,32.20
2017-05-09T09:19:11.610Z,31.50
2017-05-09T09:21:39.918Z,31.10
2017-05-09T09:24:08.210Z,31.30
2017-05-09T09:26:36.546Z,31.50
2017-05-09T09:29:04.841Z,32.30
2017-05-09T09:31:33.138Z,32.70
2017-05-09T09:34:01.483Z,33.00
2017-05-09T09:36:29.782Z,32.70
2017-05-09T09:38:58.074Z,34.90
2017-05-09T09:41:26.398Z,33.40
2017-05-09T09:43:54.699Z,35.70
2017-05-09T09:46:23.022Z,34.20
2017-05-09T09:48:52.069Z,34.90
2017-05-09T09:51:20.394Z,34.50
2017-05-09T09:53:48.699Z,35.20
2017-05-09T09:56:16.998Z,35.50
2017-05-09T09:58:45.339Z,34.80
2017-05-09T10:01:14.430Z,33.90
2017-05-09T10:03:42.725Z,33.70
2017-05-09T10:06:11.806Z,34.20
2017-05-09T10:08:40.846Z,35.00
2017-05-09T10:11:09.142Z,35.30
2017-05-09T10:13:37.478Z,33.90
2017-05-09T10:16:05.781Z,32.30
2017-05-09T10:18:34.089Z,34.50
2017-05-09T10:21:02.440Z,34.50
2017-05-09T10:23:30.747Z,36.30
2017-05-09T10:25:59.047Z,31.20
2017-05-09T10:28:28.131Z,31.50
2017-05-09T10:30:56.426Z,32.50
2017-05-09T10:33:25.470Z,33.30
2017-05-09T10:35:53.804Z,34.70
2017-05-09T10:38:22.859Z,35.90
2017-05-09T10:40:51.167Z,37.30
2017-05-09T10:43:19.506Z,38.00
2017-05-09T10:45:47.803Z,38.60
2017-05-09T10:48:16.103Z,39.80
2017-05-09T10:50:45.178Z,40.40
2017-05-09T10:53:13.474Z,39.90
2017-05-09T10:55:41.773Z,39.80
2017-05-09T10:58:10.860Z,39.50
2017-05-09T11:00:39.920Z,39.60
2017-05-09T11:03:08.216Z,37.60
2017-05-09T11:05:36.561Z,38.30
2017-05-09T11:08:04.866Z,38.50
2017-05-09T11:10:33.172Z,36.20
2017-05-09T11:13:02.247Z,36.30
2017-05-09T11:15:30.559Z,36.70
2017-05-09T11:17:59.612Z,36.30
2017-05-09T11:20:27.937Z,35.60
2017-05-09T11:22:56.989Z,35.30
2017-05-09T11:25:25.278Z,35.30
2017-05-09T11:27:53.631Z,35.20
2017-05-09T11:30:21.935Z,34.50
2017-05-09T11:32:50.242Z,34.90
2017-05-09T11:35:18.586Z,33.80
2017-05-09T11:37:46.897Z,34.20
2017-05-09T11:40:15.931Z,35.90
2017-05-09T11:42:44.274Z,34.80
2017-05-09T11:45:12.579Z,34.30
2017-05-09T11:47:40.870Z,33.80
2017-05-09T11:50:09.219Z,32.90
2017-05-09T11:52:37.529Z,32.30
2017-05-09T11:55:05.831Z,34.00
2017-05-09T11:57:34.171Z,35.50
2017-05-09T12:00:02.464Z,36.90
2017-05-09T12:02:30.762Z,35.30
2017-05-09T12:04:59.097Z,36.60
2017-05-09T12:07:27.392Z,38.80
2017-05-09T12:09:55.689Z,38.40
2017-05-09T12:12:24.047Z,37.40
2017-05-09T12:14:52.344Z,38.40
2017-05-09T12:17:20.644Z,40.30
2017-05-09T12:19:48.983Z,38.80
2017-05-09T12:22:17.278Z,39.40
2017-05-09T12:24:45.582Z,39.70
2017-05-09T12:27:13.923Z,38.70
2017-05-09T12:29:42.224Z,39.20
2017-05-09T12:32:10.519Z,38.70
2017-05-09T12:34:38.882Z,38.30
2017-05-09T12:37:07.180Z,37.40
2017-05-09T12:39:35.478Z,35.50
2017-05-09T12:42:04.558Z,35.50
2017-05-09T12:44:33.074Z,35.10
2017-05-09T12:47:01.378Z,34.90
2017-05-09T12:49:29.701Z,32.90
2017-05-09T12:51:58.002Z,34.20
2017-05-09T12:54:26.360Z,32.30
2017-05-09T12:56:54.658Z,29.70
2017-05-09T12:59:23.700Z,29.40
2017-05-09T13:01:52.035Z,28.60
2017-05-09T13:04:20.346Z,29.70
2017-05-09T13:06:48.646Z,27.90
2017-05-09T13:09:16.989Z,28.00
2017-05-09T13:11:45.296Z,29.20
2017-05-09T13:14:13.609Z,28.20
2017-05-09T13:16:42.691Z,29.10
2017-05-09T13:19:10.990Z,28.70
2017-05-09T13:21:43.454Z,29.20
2017-05-09T13:24:11.751Z,30.50
2017-05-09T13:26:40.794Z,28.70
2017-05-09T13:29:09.133Z,29.60
2017-05-09T13:31:37.427Z,30.20
2017-05-09T13:34:05.735Z,30.60
2017-05-09T13:36:34.086Z,29.80
2017-05-09T13:39:02.387Z,30.30
2017-05-09T13:41:30.684Z,30.60
2017-05-09T13:43:59.072Z,31.60
2017-05-09T13:46:27.370Z,30.20
2017-05-09T13:48:56.415Z,29.80
2017-05-09T13:51:24.759Z,28.70
2017-05-09T13:53:53.060Z,28.30
2017-05-09T13:56:21.363Z,28.30
2017-05-09T13:58:49.702Z,29.80
2017-05-09T14:01:18.010Z,29.50
2017-05-09T14:03:46.311Z,31.30
2017-05-09T14:06:14.662Z,33.50
2017-05-09T14:08:42.976Z,31.70
2017-05-09T14:11:11.280Z,31.30
2017-05-09T14:13:39.617Z,30.00
2017-05-09T14:16:08.846Z,31.50
2017-05-09T14:18:37.142Z,31.60
2017-05-09T14:21:05.497Z,32.00
2017-05-09T14:23:34.553Z,30.60
2017-05-09T14:26:02.866Z,29.70
2017-05-09T14:28:31.203Z,31.60
2017-05-09T14:30:59.512Z,31.40
2017-05-09T14:33:28.723Z,31.10
2017-05-09T14:35:57.078Z,30.80
2017-05-09T14:38:25.384Z,30.00
2017-05-09T14:40:53.682Z,30.00
2017-05-09T14:43:22.765Z,32.20
2017-05-09T14:45:51.066Z,31.90
2017-05-09T14:48:19.362Z,32.00
2017-05-09T14:50:47.702Z,33.00
2017-05-09T14:53:16.753Z,30.80
2017-05-09T14:55:45.051Z,31.70
2017-05-09T14:58:13.398Z,31.80
2017-05-09T15:00:41.698Z,31.40
2017-05-09T15:03:10.074Z,29.90
2017-05-09T15:05:38.419Z,30.00
2017-05-09T15:08:06.719Z,30.00
2017-05-09T15:10:35.018Z,30.40
2017-05-09T15:13:03.353Z,29.00
2017-05-09T15:15:31.655Z,30.00
2017-05-09T15:17:59.952Z,31.30
2017-05-09T15:20:28.290Z,30.80
2017-05-09T15:22:56.598Z,32.60
2017-05-09T15:25:24.906Z,32.30
2017-05-09T15:27:53.250Z,33.50
2017-05-09T15:30:21.551Z,34.60
2017-05-09T15:32:49.846Z,33.20
2017-05-09T15:35:18.185Z,34.90
2017-05-09T15:37:46.477Z,34.60
2017-05-09T15:40:14.786Z,33.20
2017-05-09T15:42:43.115Z,34.20
2017-05-09T15:45:11.405Z,34.10
2017-05-09T15:47:39.806Z,33.20
2017-05-09T15:50:08.147Z,35.30
2017-05-09T15:52:36.445Z,34.40
2017-05-09T15:55:04.750Z,33.90
2017-05-09T15:57:33.093Z,33.30
2017-05-09T16:00:01.390Z,33.60
2017-05-09T16:02:29.687Z,34.00
2017-05-09T16:04:58.023Z,36.30
2017-05-09T16:07:26.342Z,34.80
2017-05-09T16:09:54.642Z,33.80
2017-05-09T16:12:23.721Z,33.90
2017-05-09T16:14:52.024Z,33.70
2017-05-09T16:17:21.054Z,32.90
2017-05-09T16:19:49.398Z,34.10
2017-05-09T16:22:18.440Z,33.90
2017-05-09T16:24:46.742Z,35.40
2017-05-09T16:27:15.491Z,34.30
2017-05-09T16:29:43.791Z,36.10
2017-05-09T16:32:12.085Z,37.50
2017-05-09T16:34:40.406Z,38.40
2017-05-09T16:37:08.703Z,37.70
2017-05-09T16:39:37.003Z,38.40
2017-05-09T16:42:05.331Z,37.90
2017-05-09T16:44:35.256Z,38.90
2017-05-09T16:47:03.562Z,39.80
2017-05-09T16:49:31.901Z,38.50
2017-05-09T16:52:00.939Z,38.70
2017-05-09T16:54:29.238Z,39.60
2017-05-09T16:56:57.581Z,39.00
2017-05-09T16:59:25.889Z,39.40
2017-05-09T17:01:54.194Z,40.30
2017-05-09T17:04:22.525Z,39.30
2017-05-09T17:06:50.819Z,40.60
2017-05-09T17:09:19.115Z,40.80
2017-05-09T17:11:47.451Z,41.60
2017-05-09T17:14:15.729Z,39.90
2017-05-09T17:16:44.017Z,39.80
2017-05-09T17:19:12.350Z,41.50
2017-05-09T17:21:40.643Z,40.40
2017-05-09T17:24:09.685Z,39.80
2017-05-09T17:26:38.012Z,41.80
2017-05-09T17:29:07.042Z,39.50
2017-05-09T17:31:35.337Z,41.00
2017-05-09T17:34:03.691Z,41.10
2017-05-09T17:36:32.057Z,41.60
2017-05-09T17:39:01.121Z,41.20
2017-05-09T17:41:29.475Z,43.30
2017-05-09T17:43:57.773Z,42.20
2017-05-09T17:46:26.067Z,43.40
2017-05-09T17:48:54.398Z,42.90
2017-05-09T17:51:22.694Z,43.70
2017-05-09T17:53:50.989Z,45.10
2017-05-09T17:56:19.324Z,43.50
2017-05-09T17:58:47.623Z,44.10
2017-05-09T18:01:15.935Z,43.60
2017-05-09T18:03:44.278Z,42.20
2017-05-09T18:06:12.579Z,43.50
2017-05-09T18:08:41.648Z,43.40
2017-05-09T18:11:09.999Z,43.30
2017-05-09T18:13:38.303Z,44.20
2017-05-09T18:16:06.589Z,44.20
2017-05-09T18:18:34.910Z,44.00
2017-05-09T18:21:03.954Z,44.40
2017-05-09T18:23:32.260Z,44.90
2017-05-09T18:26:00.561Z,45.30
2017-05-09T18:28:29.650Z,45.70
2017-05-09T18:30:57.947Z,46.30
2017-05-09T18:33:26.987Z,46.00
2017-05-09T18:35:55.311Z,47.10
2017-05-09T18:38:23.610Z,46.50
2017-05-09T18:40:52.669Z,46.60
2017-05-09T18:43:20.976Z,47.40
2017-05-09T18:45:50.021Z,46.40
2017-05-09T18:48:18.351Z,47.40
2017-05-09T18:50:47.390Z,46.00
2017-05-09T18:53:15.718Z,47.20
2017-05-09T18:55:44.023Z,46.60
2017-05-09T18:58:13.268Z,47.40
2017-05-09T19:00:41.578Z,46.40
2017-05-09T19:03:10.612Z,47.40
2017-05-09T19:05:38.939Z,47.30
2017-05-09T19:08:07.231Z,47.00
2017-05-09T19:10:36.442Z,47.80
2017-05-09T19:13:04.753Z,48.10
2017-05-09T19:15:33.050Z,47.20
2017-05-09T19:18:01.375Z,47.40
2017-05-09T19:20:31.330Z,47.20
2017-05-09T19:22:59.645Z,48.20
2017-05-09T19:25:27.962Z,48.60
2017-05-09T19:27:56.255Z,47.10
2017-05-09T19:30:24.596Z,48.40
2017-05-09T19:32:53.643Z,48.60
2017-05-09T19:35:21.946Z,49.60
2017-05-09T19:37:50.265Z,48.00
2017-05-09T19:40:18.585Z,48.60
2017-05-09T19:42:46.922Z,48.80
2017-05-09T19:45:15.235Z,49.10
2017-05-09T19:47:43.525Z,49.30
2017-05-09T19:50:11.842Z,49.20
2017-05-09T19:52:40.882Z,49.00
2017-05-09T19:55:09.219Z,48.90
2017-05-09T19:57:38.258Z,49.20
2017-05-09T20:00:06.563Z,50.50
2017-05-09T20:02:34.886Z,50.10
2017-05-09T20:05:03.185Z,50.70
2017-05-09T20:07:31.527Z,50.20
2017-05-09T20:10:00.574Z,50.60
2017-05-09T20:12:28.880Z,51.80
2017-05-09T20:14:57.970Z,51.20
2017-05-09T20:17:26.268Z,51.90
2017-05-09T20:19:54.590Z,51.00
2017-05-09T20:22:22.891Z,51.20
2017-05-09T20:24:51.194Z,51.20
2017-05-09T20:27:19.507Z,51.10
2017-05-09T20:29:47.803Z,51.40
2017-05-09T20:32:16.131Z,51.70
2017-05-09T20:34:44.485Z,52.30
2017-05-09T20:37:12.827Z,51.70
2017-05-09T20:39:41.126Z,52.40
2017-05-09T20:42:09.444Z,52.60
2017-05-09T20:44:37.764Z,53.10
2017-05-09T20:47:06.061Z,53.00
2017-05-09T20:49:34.414Z,53.00
2017-05-09T20:52:02.719Z,54.50
2017-05-09T20:54:31.023Z,54.80
2017-05-09T20:56:59.405Z,54.90
2017-05-09T20:59:27.719Z,56.90
2017-05-09T21:01:56.787Z,57.90
2017-05-09T21:04:25.106Z,57.60
2017-05-09T21:06:53.414Z,58.30
2017-05-09T21:09:21.723Z,59.40
2017-05-09T21:11:50.029Z,59.30
2017-05-09T21:14:19.108Z,59.00
2017-05-09T21:16:47.405Z,60.10
2017-05-09T21:19:16.433Z,61.00
2017-05-09T21:21:44.750Z,62.20
2017-05-09T21:24:13.041Z,62.60
2017-05-09T21:26:42.114Z,63.80
2017-05-09T21:29:10.430Z,64.30
2017-05-09T21:31:39.485Z,65.60
2017-05-09T21:34:07.831Z,66.50
2017-05-09T21:36:36.130Z,66.70
2017-05-09T21:39:04.457Z,67.20
2017-05-09T21:41:33.523Z,67.10
2017-05-09T21:44:01.814Z,68.70
2017-05-09T21:46:30.134Z,68.70
2017-05-09T21:48:58.427Z,69.10
2017-05-09T21:51:26.751Z,70.30
2017-05-09T21:53:55.051Z,71.80
2017-05-09T21:56:24.103Z,72.40
2017-05-09T21:58:52.418Z,73.30
2017-05-09T22:01:21.456Z,73.50
2017-05-09T22:03:49.778Z,74.60
2017-05-09T22:06:18.072Z,74.70
2017-05-09T22:08:47.130Z,74.70
2017-05-09T22:11:15.450Z,76.20
2017-05-09T22:13:44.493Z,76.60
2017-05-09T22:16:12.851Z,77.20
2017-05-09T22:18:41.150Z,78.00
2017-05-09T22:21:09.450Z,77.90
2017-05-09T22:23:37.767Z,78.70
2017-05-09T22:26:06.075Z,79.60
2017-05-09T22:28:34.418Z,80.30
2017-05-09T22:31:03.465Z,80.20
2017-05-09T22:33:31.762Z,80.20
2017-05-09T22:36:00.092Z,80.60
2017-05-09T22:38:28.386Z,81.40
2017-05-09T22:40:56.707Z,82.60
2017-05-09T22:43:24.994Z,82.30
2017-05-09T22:45:53.288Z,82.50
2017-05-09T22:48:22.346Z,82.70
2017-05-09T22:50:50.637Z,82.70
2017-05-09T22:53:18.970Z,82.90
2017-05-09T22:55:47.264Z,82.90
2017-05-09T22:58:15.560Z,82.90
2017-05-09T23:00:43.871Z,83.00
2017-05-09T23:03:12.158Z,83.40
2017-05-09T23:05:41.226Z,84.10
2017-05-09T23:08:09.514Z,84.50
2017-05-09T23:10:37.809Z,84.50
2017-05-09T23:13:06.859Z,85.00
2017-05-09T23:15:35.154Z,85.50
2017-05-09T23:18:03.478Z,86.20
2017-05-09T23:20:31.774Z,86.80
2017-05-09T23:23:00.066Z,86.90
2017-05-09T23:25:28.387Z,88.10
2017-05-09T23:27:57.427Z,88.10
2017-05-09T23:30:25.754Z,89.60
2017-05-09T23:32:54.046Z,89.30
2017-05-09T23:35:23.086Z,89.80
2017-05-09T23:37:51.428Z,90.30
2017-05-09T23:40:19.724Z,90.70
2017-05-09T23:42:48.047Z,90.60
2017-05-09T23:45:16.343Z,90.80
2017-05-09T23:47:45.379Z,91.20
2017-05-09T23:50:13.703Z,90.90
2017-05-09T23:52:41.998Z,91.10
2017-05-09T23:55:11.057Z,91.10
2017-05-09T23:57:39.351Z,91.10
